aviador You're here:

GMTN Decoded Metar

TETOUAN in MOROCCO
Report Time2018-06-24 20:00:00
UTC Time2018-06-24 20:33:19
Flight Rules ifr IFR
Wind320° at 07 kt
W.Decomp.*RWY 24: 1.1 kt HW 6.9 kt RCW
W.Rank320° ranks 28
Current wind is above 320° avg. (5.4)
Visibility4000 m
Phenomena:Mist
Clouds:Broken 016 Hf
Expected CloudBase > 1,600 ft AGL from Temp-Dew spread
Ceiling1,600 ft
Temp23°C (ISA +8)
Dew Point19°C (78% RH)
QNH1014 hPa
Density Alt1,227 ft
Elevation33 ft
Report Wrong Elevation
Raw Report
GMTN 242000Z 32007KT 4000 BR BKN016 23/19 Q1014 NOSIG=

Extra information for GMTN:More info

Metar Taf Metar & Taf Last 4 Metars F.Rules Stats Wind Profile Meteogram Temp Stats Airport Information Weather charts Add Link Nearby VenuesMetar ALERT Operation Metar Decoded Social comments